Time;durP1;ratioP1;P1;durP2;ratioP2;P2;SDS_P1;SDS_P2;PMS_P1;PMS_P2;Temp;Humidity;BMP_temperature;BMP_pressure;BME280_temperature;BME280_humidity;BME280_pressure;Samples;Min_cycle;Max_cycle;Signal;HPM_P1;HPM_P2
2023/10/18 00:00:59;;;;;;;24.55;11.15;;;;;;;-148.88;100.00;-17125.47;5035218;28;20036;-86
2023/10/18 00:03:31;;;;;;;30.58;10.73;;;;;;;-148.88;100.00;-17125.47;5034993;28;20067;-86
2023/10/18 00:05:59;;;;;;;24.63;10.63;;;;;;;-148.88;100.00;-17125.47;5035613;28;20066;-86
2023/10/18 00:08:24;;;;;;;28.42;12.90;;;;;;;-148.88;100.00;-17125.47;5035576;28;20147;-86
2023/10/18 00:10:55;;;;;;;29.85;12.32;;;;;;;-148.88;100.00;-17125.47;5035849;28;20142;-86
2023/10/18 00:13:23;;;;;;;27.67;11.70;;;;;;;-148.88;100.00;-17125.47;5036756;28;20255;-86
2023/10/18 00:15:55;;;;;;;26.92;12.43;;;;;;;-148.88;100.00;-17125.47;5035628;28;20032;-86
2023/10/18 00:18:20;;;;;;;26.98;11.90;;;;;;;-148.88;100.00;-17125.47;5036643;28;20029;-86
2023/10/18 00:20:47;;;;;;;38.90;26.08;;;;;;;-148.88;100.00;-17125.47;5034757;28;20079;-86
2023/10/18 00:23:13;;;;;;;30.25;12.25;;;;;;;-148.88;100.00;-17125.47;5034818;28;20053;-87
2023/10/18 00:25:39;;;;;;;27.55;12.55;;;;;;;-148.88;100.00;-17125.47;5036006;28;20032;-87
2023/10/18 00:28:04;;;;;;;27.83;13.05;;;;;;;-148.88;100.00;-17125.47;5034499;28;20108;-85
2023/10/18 00:30:30;;;;;;;27.75;12.45;;;;;;;-148.88;100.00;-17125.47;5036136;28;20033;-87
2023/10/18 00:32:56;;;;;;;35.85;14.88;;;;;;;-148.88;100.00;-17125.47;5034800;28;20017;-87
2023/10/18 00:35:39;;;;;;;27.40;12.38;;;;;;;-148.88;100.00;-17125.47;5034285;28;20037;-87
2023/10/18 00:38:08;;;;;;;33.53;13.35;;;;;;;-148.88;100.00;-17125.47;5035634;28;20482;-87
2023/10/18 00:40:33;;;;;;;29.50;13.88;;;;;;;-148.88;100.00;-17125.47;5034620;28;20053;-87
2023/10/18 00:43:20;;;;;;;31.88;12.80;;;;;;;-148.88;100.00;-17125.47;5035400;28;20032;-87
2023/10/18 00:45:47;;;;;;;29.45;12.60;;;;;;;-148.88;100.00;-17125.47;5035413;28;20491;-86
2023/10/18 00:48:14;;;;;;;30.17;12.32;;;;;;;-148.88;100.00;-17125.47;5034619;28;20104;-86
2023/10/18 00:50:45;;;;;;;28.42;12.75;;;;;;;-148.88;100.00;-17125.47;5034403;28;20022;-87
2023/10/18 00:53:30;;;;;;;28.40;12.98;;;;;;;-148.88;100.00;-17125.47;5033868;28;20503;-86
2023/10/18 00:55:57;;;;;;;31.58;12.60;;;;;;;-148.88;100.00;-17125.47;5035829;28;20079;-86
2023/10/18 00:58:27;;;;;;;30.73;12.45;;;;;;;-148.88;100.00;-17125.47;5035373;28;20033;-87
2023/10/18 01:00:54;;;;;;;25.92;10.98;;;;;;;-148.88;100.00;-17125.47;5034875;28;20029;-86
2023/10/18 01:03:29;;;;;;;27.60;10.57;;;;;;;-148.88;100.00;-17125.47;5033736;28;20025;-86
2023/10/18 01:06:30;;;;;;;24.65;10.43;;;;;;;-148.88;100.00;-17125.47;5033778;28;20040;-87
2023/10/18 01:08:56;;;;;;;23.88;10.70;;;;;;;-148.88;100.00;-17125.47;4996754;28;20610;-87
2023/10/18 01:11:33;;;;;;;28.10;11.48;;;;;;;-148.88;100.00;-17125.47;5029595;28;20045;-86
2023/10/18 01:14:00;;;;;;;35.40;12.40;;;;;;;-148.88;100.00;-17125.47;5035016;28;20017;-87
2023/10/18 01:16:30;;;;;;;26.88;11.52;;;;;;;-148.88;100.00;-17125.47;5034643;28;20468;-87
2023/10/18 01:18:55;;;;;;;27.95;12.75;;;;;;;-148.88;100.00;-17125.47;5035045;28;20061;-87
2023/10/18 01:21:25;;;;;;;30.80;12.30;;;;;;;-148.88;100.00;-17125.47;5033537;28;20057;-87
2023/10/18 01:23:54;;;;;;;27.52;11.48;;;;;;;-148.88;100.00;-17125.47;5033573;28;20435;-87
2023/10/18 01:26:24;;;;;;;29.38;12.27;;;;;;;-148.88;100.00;-17125.47;5033790;28;20034;-85
2023/10/18 01:28:54;;;;;;;32.88;13.30;;;;;;;-148.88;100.00;-17125.47;5033842;28;20025;-86
2023/10/18 01:31:21;;;;;;;24.80;13.30;;;;;;;-148.88;100.00;-17125.47;5034752;28;20025;-86
2023/10/18 01:33:47;;;;;;;29.08;13.15;;;;;;;-148.88;100.00;-17125.47;5033741;28;20018;-86
2023/10/18 01:36:17;;;;;;;31.88;12.27;;;;;;;-148.88;100.00;-17125.47;5033343;28;20044;-85
2023/10/18 01:38:46;;;;;;;29.83;12.45;;;;;;;-148.88;100.00;-17125.47;5033045;28;20025;-87
2023/10/18 01:41:29;;;;;;;27.20;13.13;;;;;;;-148.88;100.00;-17125.47;5034281;28;20511;-86
2023/10/18 01:44:06;;;;;;;28.73;12.60;;;;;;;-148.88;100.00;-17125.47;5033008;28;20017;-87
2023/10/18 01:46:45;;;;;;;27.80;12.23;;;;;;;-148.88;100.00;-17125.47;5033100;28;20033;-86
2023/10/18 01:49:13;;;;;;;31.80;12.05;;;;;;;-148.88;100.00;-17125.47;5033851;28;20029;-87
2023/10/18 01:51:42;;;;;;;34.22;13.32;;;;;;;-148.88;100.00;-17125.47;5032898;28;20025;-87
2023/10/18 01:54:12;;;;;;;28.77;11.98;;;;;;;-148.88;100.00;-17125.47;5032905;28;20029;-86
2023/10/18 01:56:38;;;;;;;29.88;11.70;;;;;;;-148.88;100.00;-17125.47;5032984;28;20487;-86
2023/10/18 01:59:14;;;;;;;25.60;11.73;;;;;;;-148.88;100.00;-17125.47;5034146;28;20025;-87
2023/10/18 02:01:40;;;;;;;27.50;12.07;;;;;;;-148.88;100.00;-17125.47;5033608;28;20025;-86
2023/10/18 02:04:19;;;;;;;27.10;11.50;;;;;;;-148.88;100.00;-17125.47;5032514;28;20033;-87
2023/10/18 02:06:46;;;;;;;26.55;11.25;;;;;;;-148.88;100.00;-17125.47;5034038;28;20522;-86
2023/10/18 02:09:12;;;;;;;27.95;12.23;;;;;;;-148.88;100.00;-17125.47;5033804;28;20545;-87
2023/10/18 02:11:38;;;;;;;25.25;11.30;;;;;;;-148.88;100.00;-17125.47;5032460;28;20029;-85
2023/10/18 02:14:04;;;;;;;28.45;12.60;;;;;;;-148.88;100.00;-17125.47;5032239;28;20070;-85
2023/10/18 02:16:31;;;;;;;28.35;12.18;;;;;;;-148.88;100.00;-17125.47;5032706;28;20025;-86
2023/10/18 02:18:57;;;;;;;27.95;12.15;;;;;;;-148.88;100.00;-17125.47;5033699;28;20017;-85
2023/10/18 02:21:23;;;;;;;28.60;10.68;;;;;;;-148.88;100.00;-17125.47;5032418;28;20029;-86
2023/10/18 02:23:51;;;;;;;26.90;11.02;;;;;;;-148.88;100.00;-17125.47;5033655;28;20076;-86
2023/10/18 02:26:40;;;;;;;27.15;11.48;;;;;;;-148.88;100.00;-17125.47;5034163;28;20112;-85
2023/10/18 02:29:11;;;;;;;28.58;11.13;;;;;;;-148.88;100.00;-17125.47;5033476;28;20053;-86
2023/10/18 02:31:38;;;;;;;32.92;12.45;;;;;;;-148.88;100.00;-17125.47;5033998;28;20383;-86
2023/10/18 02:34:05;;;;;;;29.55;12.27;;;;;;;-148.88;100.00;-17125.47;5033560;28;20476;-85
2023/10/18 02:36:38;;;;;;;26.15;12.32;;;;;;;-148.88;100.00;-17125.47;5032536;28;20033;-86
2023/10/18 02:39:07;;;;;;;27.92;11.43;;;;;;;-148.88;100.00;-17125.47;5033883;28;20022;-86
2023/10/18 02:41:39;;;;;;;29.65;12.93;;;;;;;-148.88;100.00;-17125.47;5033488;28;20544;-86
2023/10/18 02:44:21;;;;;;;26.73;11.52;;;;;;;-148.88;100.00;-17125.47;5033589;28;20029;-86
2023/10/18 02:46:49;;;;;;;20.55;10.30;;;;;;;-148.88;100.00;-17125.47;5031998;28;20407;-86
2023/10/18 02:49:14;;;;;;;26.67;10.90;;;;;;;-148.88;100.00;-17125.47;5031997;28;20491;-86
2023/10/18 02:51:40;;;;;;;27.33;10.38;;;;;;;-148.88;100.00;-17125.47;5032011;28;20113;-86
2023/10/18 02:56:50;;;;;;;25.52;10.77;;;;;;;-148.88;100.00;-17125.47;5033621;28;20119;-87
2023/10/18 02:59:20;;;;;;;24.00;10.27;;;;;;;-148.88;100.00;-17125.47;5032221;28;20021;-86
2023/10/18 03:01:48;;;;;;;24.95;10.35;;;;;;;-148.88;100.00;-17125.47;5032124;28;20625;-86
2023/10/18 03:04:16;;;;;;;26.73;11.82;;;;;;;-148.88;100.00;-17125.47;5033391;28;20486;-86
2023/10/18 03:06:43;;;;;;;24.05;9.90;;;;;;;-148.88;100.00;-17125.47;5032293;28;20113;-86
2023/10/18 03:09:26;;;;;;;24.50;10.30;;;;;;;-148.88;100.00;-17125.47;5032197;28;20025;-87
2023/10/18 03:11:53;;;;;;;27.85;10.93;;;;;;;-148.88;100.00;-17125.47;5032378;28;20030;-86
2023/10/18 03:14:23;;;;;;;23.80;11.82;;;;;;;-148.88;100.00;-17125.47;5033576;28;20151;-87
2023/10/18 03:16:49;;;;;;;24.92;11.10;;;;;;;-148.88;100.00;-17125.47;5035720;28;20052;-86
2023/10/18 03:19:17;;;;;;;24.60;10.85;;;;;;;-148.88;100.00;-17125.47;5037375;28;20100;-86
2023/10/18 03:21:47;;;;;;;28.98;10.63;;;;;;;-148.88;100.00;-17125.47;5037491;28;20052;-86
2023/10/18 03:24:12;;;;;;;22.45;10.27;;;;;;;-148.88;100.00;-17125.47;5037342;28;20021;-86
2023/10/18 03:26:37;;;;;;;28.75;12.07;;;;;;;-148.88;100.00;-17125.47;5037363;28;20052;-86
2023/10/18 03:29:15;;;;;;;24.52;12.00;;;;;;;-148.88;100.00;-17125.47;5037162;28;20029;-87
2023/10/18 03:31:41;;;;;;;27.27;11.52;;;;;;;-148.88;100.00;-17125.47;5037718;28;20026;-86
2023/10/18 03:34:41;;;;;;;25.25;11.82;;;;;;;-148.88;100.00;-17125.47;5035990;28;20037;-87
2023/10/18 03:36:59;;;;;;;24.58;11.70;;;;;;;-148.88;100.00;-17125.47;5035841;28;20505;-86
2023/10/18 03:39:25;;;;;;;25.10;11.15;;;;;;;-148.88;100.00;-17125.47;5037232;28;20053;-86
2023/10/18 03:41:50;;;;;;;26.55;11.93;;;;;;;-148.88;100.00;-17125.47;5035880;28;20025;-86
2023/10/18 03:44:46;;;;;;;25.20;11.27;;;;;;;-148.88;100.00;-17125.47;5037272;28;20399;-86
2023/10/18 03:47:11;;;;;;;26.80;10.95;;;;;;;-148.88;100.00;-17125.47;5036802;28;20042;-86
2023/10/18 03:49:37;;;;;;;30.50;11.80;;;;;;;-148.88;100.00;-17125.47;5037102;28;20586;-88
2023/10/18 03:57:28;;;;;;;23.15;11.07;;;;;;;-148.88;100.00;-17125.47;5037074;28;20133;-85
2023/10/18 03:59:58;;;;;;;25.83;12.20;;;;;;;-148.88;100.00;-17125.47;5035585;28;20045;-86
2023/10/18 04:02:29;;;;;;;23.45;11.23;;;;;;;-148.88;100.00;-17125.47;5036422;28;20398;-86
2023/10/18 04:04:58;;;;;;;24.33;11.13;;;;;;;-148.88;100.00;-17125.47;5036339;28;20510;-86
2023/10/18 04:07:26;;;;;;;28.85;12.93;;;;;;;-148.88;100.00;-17125.47;5036432;28;20380;-84
2023/10/18 04:09:53;;;;;;;26.70;12.30;;;;;;;-148.88;100.00;-17125.47;5035484;28;20033;-85
2023/10/18 04:12:22;;;;;;;25.05;12.25;;;;;;;-148.88;100.00;-17125.47;5036703;28;20056;-88
2023/10/18 04:14:56;;;;;;;24.63;11.25;;;;;;;-148.88;100.00;-17125.47;5034904;28;20067;-87
2023/10/18 04:22:46;;;;;;;25.00;11.98;;;;;;;-148.88;100.00;-17125.47;5036838;28;20387;-86
2023/10/18 04:25:16;;;;;;;21.40;11.00;;;;;;;-148.88;100.00;-17125.47;5035847;28;20100;-85
2023/10/18 04:27:47;;;;;;;23.05;10.60;;;;;;;-148.88;100.00;-17125.47;5035338;28;20041;-86
2023/10/18 04:30:16;;;;;;;24.73;11.73;;;;;;;-148.88;100.00;-17125.47;5036153;28;20108;-85
2023/10/18 04:32:42;;;;;;;24.63;11.27;;;;;;;-148.88;100.00;-17125.47;5036139;28;20029;-85
2023/10/18 04:35:17;;;;;;;26.20;11.65;;;;;;;-148.88;100.00;-17125.47;5035641;28;20522;-86
2023/10/18 04:37:43;;;;;;;24.42;11.20;;;;;;;-148.88;100.00;-17125.47;5036214;28;20057;-86
2023/10/18 04:40:22;;;;;;;25.13;10.82;;;;;;;-148.88;100.00;-17125.47;5036177;28;20101;-86
2023/10/18 04:42:49;;;;;;;23.27;10.52;;;;;;;-148.88;100.00;-17125.47;5034679;28;20116;-86
2023/10/18 04:45:18;;;;;;;22.92;10.63;;;;;;;-148.88;100.00;-17125.47;5034567;28;20108;-86
2023/10/18 04:47:49;;;;;;;26.08;11.68;;;;;;;-148.88;100.00;-17125.47;5034737;28;20022;-86
2023/10/18 04:50:18;;;;;;;22.90;11.48;;;;;;;-148.88;100.00;-17125.47;5034882;28;20029;-85
2023/10/18 04:52:47;;;;;;;26.98;12.07;;;;;;;-148.88;100.00;-17125.47;5034370;28;20025;-86
2023/10/18 04:55:16;;;;;;;24.48;11.60;;;;;;;-148.88;100.00;-17125.47;5035415;28;20067;-87
2023/10/18 04:57:42;;;;;;;24.50;12.55;;;;;;;-148.88;100.00;-17125.47;5036033;28;20061;-88
2023/10/18 05:00:24;;;;;;;24.20;12.00;;;;;;;-148.88;100.00;-17125.47;5035907;28;20559;-86
2023/10/18 05:02:51;;;;;;;27.35;11.50;;;;;;;-148.88;100.00;-17125.47;5034549;28;20470;-86
2023/10/18 05:05:17;;;;;;;23.63;11.63;;;;;;;-148.88;100.00;-17125.47;5035614;28;20064;-88
2023/10/18 05:07:47;;;;;;;23.48;10.00;;;;;;;-148.88;100.00;-17125.47;5035051;28;20025;-85
2023/10/18 05:10:16;;;;;;;26.15;12.23;;;;;;;-148.88;100.00;-17125.47;5035266;28;20029;-87
2023/10/18 05:12:49;;;;;;;19.77;9.82;;;;;;;-148.88;100.00;-17125.47;5035310;28;20080;-86
2023/10/18 05:15:21;;;;;;;22.73;10.65;;;;;;;-148.88;100.00;-17125.47;5034378;28;20079;-86
2023/10/18 05:17:47;;;;;;;24.95;11.10;;;;;;;-148.88;100.00;-17125.47;5035353;28;20022;-87
2023/10/18 05:22:48;;;;;;;22.58;10.80;;;;;;;-148.88;100.00;-17125.47;5035036;28;20486;-87
2023/10/18 05:27:45;;;;;;;26.02;10.93;;;;;;;-148.88;100.00;-17125.47;5035155;28;20034;-87
2023/10/18 05:30:15;;;;;;;20.70;10.27;;;;;;;-148.88;100.00;-17125.47;5034754;28;20384;-87
2023/10/18 05:35:33;;;;;;;26.42;10.93;;;;;;;-148.88;100.00;-17125.47;5035887;28;20021;-87
2023/10/18 05:43:12;;;;;;;23.08;10.48;;;;;;;-148.88;100.00;-17125.47;5035275;28;20032;-87
2023/10/18 05:45:40;;;;;;;25.00;10.85;;;;;;;-148.88;100.00;-17125.47;5033272;28;20082;-87
2023/10/18 05:48:12;;;;;;;28.20;11.40;;;;;;;-148.88;100.00;-17125.47;5033904;28;20060;-88
2023/10/18 05:50:45;;;;;;;24.65;11.60;;;;;;;-148.88;100.00;-17125.47;5033710;28;20163;-88
2023/10/18 05:53:11;;;;;;;24.02;10.73;;;;;;;-148.88;100.00;-17125.47;5033577;28;20506;-89
2023/10/18 05:55:40;;;;;;;26.33;12.82;;;;;;;-148.88;100.00;-17125.47;5034305;28;20029;-87
2023/10/18 05:58:05;;;;;;;27.00;11.73;;;;;;;-148.88;100.00;-17125.47;5034849;28;20021;-86
2023/10/18 06:00:35;;;;;;;25.75;12.50;;;;;;;-148.88;100.00;-17125.47;5034014;28;20387;-86
2023/10/18 06:03:01;;;;;;;28.25;12.02;;;;;;;-148.88;100.00;-17125.47;5034750;28;20083;-86
2023/10/18 06:05:33;;;;;;;22.55;10.38;;;;;;;-148.88;100.00;-17125.47;5034756;28;20025;-87
2023/10/18 06:08:02;;;;;;;25.88;12.15;;;;;;;-148.88;100.00;-17125.47;5034944;28;20029;-87
2023/10/18 06:10:28;;;;;;;25.00;11.27;;;;;;;-148.88;100.00;-17125.47;5033071;28;20141;-87
2023/10/18 06:13:05;;;;;;;23.88;9.88;;;;;;;-148.88;100.00;-17125.47;5034087;28;20055;-86
2023/10/18 06:15:44;;;;;;;20.90;9.85;;;;;;;-148.88;100.00;-17125.47;5033731;28;20101;-86
2023/10/18 06:18:16;;;;;;;23.45;10.88;;;;;;;-148.88;100.00;-17125.47;5033820;28;20060;-87
2023/10/18 06:20:44;;;;;;;23.38;10.27;;;;;;;-148.88;100.00;-17125.47;5032369;28;20021;-87
2023/10/18 06:23:36;;;;;;;23.27;11.13;;;;;;;-148.88;100.00;-17125.47;5033381;28;20052;-88
2023/10/18 06:28:49;;;;;;;30.63;12.05;;;;;;;-148.88;100.00;-17125.47;5034387;28;20031;-88
2023/10/18 06:31:14;;;;;;;23.63;11.00;;;;;;;-148.88;100.00;-17125.47;5033791;28;20080;-87
2023/10/18 06:33:40;;;;;;;25.13;11.63;;;;;;;-148.88;100.00;-17125.47;5033688;28;20022;-87
2023/10/18 06:36:12;;;;;;;22.98;11.38;;;;;;;-148.88;100.00;-17125.47;5033644;28;20099;-89
2023/10/18 06:38:37;;;;;;;27.23;11.50;;;;;;;-148.88;100.00;-17125.47;5031343;22;20130;-76
2023/10/18 06:41:11;;;;;;;29.50;11.98;;;;;;;-148.88;100.00;-17125.47;5011482;28;20209;-76
2023/10/18 06:43:36;;;;;;;24.27;10.75;;;;;;;-148.88;100.00;-17125.47;5012904;28;20038;-76
2023/10/18 06:46:04;;;;;;;24.38;10.68;;;;;;;-148.88;100.00;-17125.47;5012877;28;20033;-76
2023/10/18 06:48:33;;;;;;;26.70;11.77;;;;;;;-148.88;100.00;-17125.47;5011599;28;20026;-75
2023/10/18 06:50:59;;;;;;;25.10;11.63;;;;;;;-148.88;100.00;-17125.47;5010868;28;20029;-76
2023/10/18 06:53:27;;;;;;;30.05;11.60;;;;;;;-148.88;100.00;-17125.47;5012623;28;20030;-76
2023/10/18 06:55:58;;;;;;;22.85;10.93;;;;;;;-148.88;100.00;-17125.47;5012629;28;20105;-76
2023/10/18 07:01:00;;;;;;;19.00;9.90;;;;;;;-148.88;100.00;-17125.47;5012975;28;20436;-76
2023/10/18 07:03:27;;;;;;;25.35;12.00;;;;;;;-148.88;100.00;-17125.47;5013015;28;20127;-76
2023/10/18 07:05:56;;;;;;;25.55;10.95;;;;;;;-148.88;100.00;-17125.47;5011368;28;20021;-76
2023/10/18 07:08:44;;;;;;;25.77;11.13;;;;;;;-148.88;100.00;-17125.47;5012807;28;20396;-76
2023/10/18 07:11:16;;;;;;;23.60;11.23;;;;;;;-148.88;100.00;-17125.47;5012643;28;20489;-76
2023/10/18 07:13:46;;;;;;;29.65;12.10;;;;;;;-148.88;100.00;-17125.47;5013008;28;20024;-76
2023/10/18 07:16:14;;;;;;;29.15;12.63;;;;;;;-148.88;100.00;-17125.47;5012486;28;20536;-76
2023/10/18 07:18:39;;;;;;;26.83;12.20;;;;;;;-148.88;100.00;-17125.47;5011126;28;20033;-76
2023/10/18 07:21:06;;;;;;;32.70;12.90;;;;;;;-148.88;100.00;-17125.47;5012493;28;20464;-76
2023/10/18 07:23:37;;;;;;;23.50;11.57;;;;;;;-148.88;100.00;-17125.47;5012465;28;20069;-76
2023/10/18 07:26:16;;;;;;;25.38;11.95;;;;;;;-148.88;100.00;-17125.47;5012454;28;20018;-76
2023/10/18 07:28:43;;;;;;;28.70;11.70;;;;;;;-148.88;100.00;-17125.47;5012410;28;20025;-76
2023/10/18 07:31:10;;;;;;;23.17;11.73;;;;;;;-148.88;100.00;-17125.47;5011111;28;20481;-76
2023/10/18 07:33:42;;;;;;;30.23;13.00;;;;;;;-148.88;100.00;-17125.47;5012469;28;20022;-76
2023/10/18 07:36:09;;;;;;;26.30;11.30;;;;;;;-148.88;100.00;-17125.47;5011149;28;20151;-76
2023/10/18 07:38:46;;;;;;;31.17;12.25;;;;;;;-148.88;100.00;-17125.47;5012173;28;20117;-76
2023/10/18 07:41:12;;;;;;;26.70;12.95;;;;;;;-148.88;100.00;-17125.47;5012424;28;20156;-76
2023/10/18 07:43:37;;;;;;;22.45;12.10;;;;;;;-148.88;100.00;-17125.47;5012265;28;20046;-76
2023/10/18 07:46:09;;;;;;;28.83;12.75;;;;;;;-148.88;100.00;-17125.47;5012476;28;20141;-76
2023/10/18 07:48:38;;;;;;;25.35;12.90;;;;;;;-148.88;100.00;-17125.47;5011481;28;20032;-76
2023/10/18 07:54:05;;;;;;;31.30;13.25;;;;;;;-148.88;100.00;-17125.47;5011000;28;20477;-76
2023/10/18 07:56:31;;;;;;;26.05;12.50;;;;;;;-148.88;100.00;-17125.47;5012128;28;20068;-76
2023/10/18 08:01:48;;;;;;;23.23;11.82;;;;;;;-148.88;100.00;-17125.47;5012222;28;20045;-76
2023/10/18 08:04:17;;;;;;;24.52;11.43;;;;;;;-148.88;100.00;-17125.47;5013667;28;20436;-76
2023/10/18 08:06:44;;;;;;;23.92;12.13;;;;;;;-148.88;100.00;-17125.47;5014453;28;20022;-76
2023/10/18 08:09:16;;;;;;;23.45;11.27;;;;;;;-148.88;100.00;-17125.47;5014217;28;20025;-76
2023/10/18 08:11:44;;;;;;;25.17;11.80;;;;;;;-148.88;100.00;-17125.47;5014379;28;20029;-76
2023/10/18 08:14:24;;;;;;;26.83;12.38;;;;;;;-148.88;100.00;-17125.47;5014440;28;20400;-76
2023/10/18 08:16:56;;;;;;;23.50;11.25;;;;;;;-148.88;100.00;-17125.47;5014467;28;20026;-76
2023/10/18 08:19:23;;;;;;;24.65;11.73;;;;;;;-148.88;100.00;-17125.47;5014217;28;20026;-76
2023/10/18 08:24:34;;;;;;;30.85;22.92;;;;;;;-148.88;100.00;-17125.47;5015438;28;20026;-76
2023/10/18 08:27:09;;;;;;;23.15;11.65;;;;;;;-148.88;100.00;-17125.47;5014351;28;20026;-76
2023/10/18 08:29:36;;;;;;;23.73;11.52;;;;;;;-148.88;100.00;-17125.47;5015297;28;20025;-77
2023/10/18 08:32:37;;;;;;;24.55;11.40;;;;;;;-148.88;100.00;-17125.47;5015067;28;20037;-76
2023/10/18 08:34:53;;;;;;;23.73;11.23;;;;;;;-148.88;100.00;-17125.47;5014794;28;20030;-76
2023/10/18 08:37:21;;;;;;;21.55;9.60;;;;;;;-148.88;100.00;-17125.47;5015224;28;20037;-76
2023/10/18 08:39:53;;;;;;;25.27;12.05;;;;;;;-148.88;100.00;-17125.47;5015081;28;20061;-76
2023/10/18 08:42:24;;;;;;;23.17;10.52;;;;;;;-148.88;100.00;-17125.47;5013814;28;20026;-76
2023/10/18 08:45:03;;;;;;;23.17;12.35;;;;;;;-148.88;100.00;-17125.47;5014962;28;20030;-76
2023/10/18 08:47:34;;;;;;;23.85;11.60;;;;;;;-148.88;100.00;-17125.47;5013614;28;20026;-76
2023/10/18 08:50:00;;;;;;;22.13;11.13;;;;;;;-148.88;100.00;-17125.47;5013512;28;20033;-76
2023/10/18 08:52:34;;;;;;;18.13;9.55;;;;;;;-148.88;100.00;-17125.47;5013432;28;20025;-76
2023/10/18 08:57:44;;;;;;;24.02;11.52;;;;;;;-148.88;100.00;-17125.47;5015082;28;20037;-76
2023/10/18 09:02:50;;;;;;;22.25;11.15;;;;;;;-148.88;100.00;-17125.47;5015503;28;20085;-76
2023/10/18 09:05:16;;;;;;;20.17;10.30;;;;;;;-148.88;100.00;-17125.47;5013110;28;20454;-76
2023/10/18 09:07:42;;;;;;;27.20;19.38;;;;;;;-148.88;100.00;-17125.47;5013222;28;20488;-76
2023/10/18 09:10:13;;;;;;;20.98;10.73;;;;;;;-148.88;100.00;-17125.47;5014301;28;20113;-77
2023/10/18 09:18:03;;;;;;;18.52;10.35;;;;;;;-148.88;100.00;-17125.47;5014752;28;20025;-76
2023/10/18 09:20:29;;;;;;;24.33;18.42;;;;;;;-148.88;100.00;-17125.47;5012834;28;20485;-76
2023/10/18 09:23:03;;;;;;;26.02;9.73;;;;;;;-148.88;100.00;-17125.47;5014155;28;20041;-76
2023/10/18 09:25:47;;;;;;;20.63;10.25;;;;;;;-148.88;100.00;-17125.47;5014168;28;20026;-76
2023/10/18 09:28:13;;;;;;;;;;;;;;;-148.88;100.00;-17125.47;5014429;28;20021;-76
2023/10/18 09:30:39;;;;;;;17.25;9.20;;;;;;;-148.88;100.00;-17125.47;5014091;28;19909;-76
2023/10/18 09:33:05;;;;;;;20.17;9.98;;;;;;;-148.88;100.00;-17125.47;5014135;28;20500;-76
2023/10/18 09:35:31;;;;;;;22.98;15.77;;;;;;;-148.88;100.00;-17125.47;5012551;28;20013;-76
2023/10/18 09:38:08;;;;;;;21.67;14.82;;;;;;;-148.88;100.00;-17125.47;5013753;28;20034;-76
2023/10/18 09:40:36;;;;;;;16.15;7.22;;;;;;;-148.88;100.00;-17125.47;5013877;28;20437;-76
2023/10/18 09:43:02;;;;;;;16.15;11.70;;;;;;;-148.88;100.00;-17125.47;5013924;28;20108;-76
2023/10/18 09:45:28;;;;;;;10.25;5.47;;;;;;;-148.88;100.00;-17125.47;5013790;28;20113;-76
2023/10/18 09:47:58;;;;;;;15.70;10.68;;;;;;;-148.88;100.00;-17125.47;5012657;28;20024;-75
2023/10/18 09:50:31;;;;;;;13.02;5.93;;;;;;;-148.88;100.00;-17125.47;5012407;28;20041;-76
2023/10/18 09:52:57;;;;;;;13.77;6.90;;;;;;;-148.88;100.00;-17125.47;5012854;28;20049;-76
2023/10/18 09:55:25;;;;;;;12.02;10.02;;;;;;;-148.88;100.00;-17125.47;5013614;28;20032;-76
2023/10/18 09:58:06;;;;;;;12.73;6.00;;;;;;;-148.88;100.00;-17125.47;5012335;28;20168;-76
2023/10/18 10:00:50;;;;;;;12.70;6.35;;;;;;;-148.88;100.00;-17125.47;5012204;28;20400;-76
2023/10/18 10:03:24;;;;;;;11.20;5.63;;;;;;;-148.88;100.00;-17125.47;5012341;28;20018;-76
2023/10/18 10:05:50;;;;;;;13.25;9.75;;;;;;;-148.88;100.00;-17125.47;5012379;28;20028;-76
2023/10/18 10:08:22;;;;;;;10.32;5.45;;;;;;;-148.88;100.00;-17125.47;5013488;28;20378;-76
2023/10/18 10:10:49;;;;;;;10.90;5.07;;;;;;;-148.88;100.00;-17125.47;5012663;28;20079;-76
2023/10/18 10:13:25;;;;;;;11.30;8.98;;;;;;;-148.88;100.00;-17125.47;5013340;28;20082;-76
2023/10/18 10:15:58;;;;;;;9.38;5.57;;;;;;;-148.88;100.00;-17125.47;5012088;28;20025;-77
2023/10/18 10:18:26;;;;;;;13.20;8.85;;;;;;;-148.88;100.00;-17125.47;5013355;28;20139;-76
2023/10/18 10:20:54;;;;;;;10.98;5.40;;;;;;;-148.88;100.00;-17125.47;5013274;28;20507;-77
2023/10/18 10:23:20;;;;;;;13.15;8.52;;;;;;;-148.88;100.00;-17125.47;5013192;28;20120;-76
2023/10/18 10:26:11;;;;;;;15.20;8.95;;;;;;;-148.88;98.66;-17125.47;5012311;28;20400;-77
2023/10/18 10:31:51;;;;;;;13.05;9.27;;;;;;;-148.88;96.32;-17125.47;5013155;28;20405;-76
2023/10/18 10:34:24;;;;;;;9.25;7.65;;;;;;;-148.88;96.08;-17125.47;5011740;28;20033;-76
2023/10/18 10:36:51;;;;;;;9.97;7.50;;;;;;;-148.88;94.99;-17125.47;5011715;28;20025;-76
2023/10/18 10:39:30;;;;;;;13.18;8.18;;;;;;;-148.88;95.27;-17125.47;5012956;28;20029;-78
2023/10/18 10:42:01;;;;;;;9.85;7.85;;;;;;;-148.88;94.80;-17125.47;5011715;28;20109;-77
2023/10/18 10:44:30;;;;;;;8.02;4.65;;;;;;;-148.88;94.65;-17125.47;5013023;28;20038;-77
2023/10/18 10:47:31;;;;;;;10.48;7.93;;;;;;;-148.88;97.58;-17125.47;5012998;28;20508;-76
2023/10/18 10:50:00;;;;;;;10.07;7.78;;;;;;;-148.88;94.09;-17125.47;5012583;28;20022;-76
2023/10/18 10:52:29;;;;;;;12.23;7.53;;;;;;;-148.88;92.97;-17125.47;5012713;28;20032;-76
2023/10/18 10:55:22;;;;;;;9.95;7.03;;;;;;;-148.88;90.86;-17125.47;5012755;28;20022;-76
2023/10/18 10:57:49;;;;;;;9.23;6.90;;;;;;;-148.88;88.15;-17125.47;5008481;28;20431;-76
2023/10/18 11:03:06;;;;;;;9.20;6.53;;;;;;;-148.88;88.28;-17125.47;5013117;28;20542;-76
2023/10/18 11:05:36;;;;;;;10.80;6.97;;;;;;;-148.88;84.85;-17125.47;5011358;28;20030;-76
2023/10/18 11:08:01;;;;;;;8.75;6.68;;;;;;;-148.88;86.69;-17125.47;5011622;28;20440;-76
2023/10/18 11:10:28;;;;;;;7.50;6.00;;;;;;;-148.88;84.73;-17125.47;5012424;28;20477;-76
2023/10/18 11:12:54;;;;;;;10.02;6.57;;;;;;;-148.88;83.67;-17125.47;5012626;28;20386;-76
2023/10/18 11:15:27;;;;;;;8.63;6.60;;;;;;;-148.88;85.11;-17125.47;5012589;28;20057;-76
2023/10/18 11:17:53;;;;;;;9.15;6.35;;;;;;;-148.88;84.95;-17125.47;5012560;28;20530;-76
2023/10/18 11:20:29;;;;;;;9.30;5.95;;;;;;;-148.88;83.28;-17125.47;5012563;28;20097;-76
2023/10/18 11:22:58;;;;;;;7.65;5.82;;;;;;;-148.88;81.53;-17125.47;5012605;28;20030;-76
2023/10/18 11:25:33;;;;;;;8.13;5.90;;;;;;;-148.88;81.69;-17125.47;5011599;28;20099;-77
2023/10/18 11:28:18;;;;;;;8.07;5.90;;;;;;;-148.88;79.33;-17125.47;5011172;28;20030;-76
2023/10/18 11:30:44;;;;;;;9.55;5.60;;;;;;;-148.88;80.57;-17125.47;5011189;28;20476;-76
2023/10/18 11:33:16;;;;;;;8.65;5.32;;;;;;;-148.88;82.20;-17125.47;5012210;28;20030;-75
2023/10/18 11:35:48;;;;;;;7.40;5.13;;;;;;;-148.88;80.79;-17125.47;5010877;28;20481;-75
2023/10/18 11:38:19;;;;;;;8.63;5.63;;;;;;;-148.88;81.44;-17125.47;5014992;28;20034;-75
2023/10/18 11:40:51;;;;;;;7.95;5.25;;;;;;;-148.88;81.79;-17125.47;5015972;28;20072;-76
2023/10/18 11:43:27;;;;;;;6.85;5.00;;;;;;;-148.88;79.40;-17125.47;5015977;28;20026;-77
2023/10/18 11:46:19;;;;;;;6.43;4.90;;;;;;;-148.88;79.41;-17125.47;5014605;28;20033;-76
2023/10/18 11:48:44;;;;;;;8.48;5.40;;;;;;;-148.88;78.07;-17125.47;5011759;28;20216;-76
2023/10/18 11:51:13;;;;;;;6.35;4.55;;;;;;;-148.88;77.82;-17125.47;5015704;28;20091;-76
2023/10/18 11:53:39;;;;;;;8.07;4.57;;;;;;;-148.88;76.17;-17125.47;5014324;28;20485;-76
2023/10/18 11:56:08;;;;;;;5.82;4.75;;;;;;;-148.88;77.33;-17125.47;5015615;28;20025;-76
2023/10/18 11:58:35;;;;;;;6.70;4.32;;;;;;;-148.88;77.49;-17125.47;5015801;28;20507;-76
2023/10/18 12:01:15;;;;;;;6.38;4.60;;;;;;;-148.88;78.97;-17125.47;5015626;28;20079;-76